sensor_id;sensor_type;location;lat;lon;timestamp;pressure;altitude;pressure_sealevel;temperature;humidity
79378;BME280;68959;53.132;17.984;2023-07-24T00:01:18;100170.64;;;18.16;52.58
79378;BME280;68959;53.132;17.984;2023-07-24T00:03:45;100172.13;;;18.14;52.81
79378;BME280;68959;53.132;17.984;2023-07-24T00:06:11;100167.96;;;18.11;52.88
79378;BME280;68959;53.132;17.984;2023-07-24T00:08:38;100168.18;;;18.06;52.87
79378;BME280;68959;53.132;17.984;2023-07-24T00:11:08;100166.93;;;18.03;53.24
79378;BME280;68959;53.132;17.984;2023-07-24T00:13:34;100170.73;;;17.98;53.48
79378;BME280;68959;53.132;17.984;2023-07-24T00:16:06;100172.37;;;17.93;53.35
79378;BME280;68959;53.132;17.984;2023-07-24T00:18:32;100176.80;;;17.87;53.55
79378;BME280;68959;53.132;17.984;2023-07-24T00:20:59;100173.99;;;17.81;53.68
79378;BME280;68959;53.132;17.984;2023-07-24T00:23:26;100166.70;;;17.75;53.79
79378;BME280;68959;53.132;17.984;2023-07-24T00:25:52;100164.08;;;17.72;53.58
79378;BME280;68959;53.132;17.984;2023-07-24T00:28:20;100162.15;;;17.68;53.58
79378;BME280;68959;53.132;17.984;2023-07-24T00:30:46;100166.02;;;17.67;53.51
79378;BME280;68959;53.132;17.984;2023-07-24T00:33:13;100165.77;;;17.65;53.49
79378;BME280;68959;53.132;17.984;2023-07-24T00:35:39;100171.63;;;17.64;53.52
79378;BME280;68959;53.132;17.984;2023-07-24T00:38:08;100172.46;;;17.61;53.68
79378;BME280;68959;53.132;17.984;2023-07-24T00:40:34;100169.58;;;17.59;53.84
79378;BME280;68959;53.132;17.984;2023-07-24T00:43:01;100175.02;;;17.56;54.02
79378;BME280;68959;53.132;17.984;2023-07-24T00:45:28;100174.02;;;17.52;54.16
79378;BME280;68959;53.132;17.984;2023-07-24T00:47:55;100174.05;;;17.49;54.09
79378;BME280;68959;53.132;17.984;2023-07-24T00:50:22;100169.25;;;17.46;54.32
79378;BME280;68959;53.132;17.984;2023-07-24T00:52:49;100169.39;;;17.41;54.56
79378;BME280;68959;53.132;17.984;2023-07-24T00:55:16;100165.92;;;17.38;54.31
79378;BME280;68959;53.132;17.984;2023-07-24T00:57:43;100168.81;;;17.35;54.52
79378;BME280;68959;53.132;17.984;2023-07-24T01:00:11;100163.81;;;17.32;54.52
79378;BME280;68959;53.132;17.984;2023-07-24T01:02:38;100169.96;;;17.31;54.71
79378;BME280;68959;53.132;17.984;2023-07-24T01:05:06;100172.49;;;17.30;54.67
79378;BME280;68959;53.132;17.984;2023-07-24T01:07:34;100177.68;;;17.29;54.98
79378;BME280;68959;53.132;17.984;2023-07-24T01:10:04;100177.13;;;17.25;55.25
79378;BME280;68959;53.132;17.984;2023-07-24T01:17:32;100169.38;;;17.20;55.26
79378;BME280;68959;53.132;17.984;2023-07-24T01:20:04;100166.78;;;17.19;55.31
79378;BME280;68959;53.132;17.984;2023-07-24T01:25:31;100163.10;;;17.16;55.33
79378;BME280;68959;53.132;17.984;2023-07-24T01:27:58;100161.32;;;17.15;55.27
79378;BME280;68959;53.132;17.984;2023-07-24T01:30:24;100157.80;;;17.15;55.47
79378;BME280;68959;53.132;17.984;2023-07-24T01:32:51;100161.42;;;17.15;55.47
79378;BME280;68959;53.132;17.984;2023-07-24T01:35:18;100158.20;;;17.13;55.42
79378;BME280;68959;53.132;17.984;2023-07-24T01:37:46;100157.15;;;17.11;55.57
79378;BME280;68959;53.132;17.984;2023-07-24T01:40:13;100154.20;;;17.08;55.53
79378;BME280;68959;53.132;17.984;2023-07-24T01:42:41;100146.80;;;17.05;56.28
79378;BME280;68959;53.132;17.984;2023-07-24T01:45:08;100147.09;;;17.01;57.30
79378;BME280;68959;53.132;17.984;2023-07-24T01:47:35;100145.05;;;16.95;56.97
79378;BME280;68959;53.132;17.984;2023-07-24T01:50:02;100146.98;;;16.90;56.48
79378;BME280;68959;53.132;17.984;2023-07-24T01:52:28;100146.41;;;16.86;56.27
79378;BME280;68959;53.132;17.984;2023-07-24T01:54:55;100144.86;;;16.82;56.07
79378;BME280;68959;53.132;17.984;2023-07-24T01:57:21;100142.88;;;16.79;56.20
79378;BME280;68959;53.132;17.984;2023-07-24T01:59:48;100151.52;;;16.74;56.21
79378;BME280;68959;53.132;17.984;2023-07-24T02:02:15;100155.55;;;16.70;56.41
79378;BME280;68959;53.132;17.984;2023-07-24T02:04:42;100156.82;;;16.65;56.48
79378;BME280;68959;53.132;17.984;2023-07-24T02:07:08;100160.33;;;16.60;56.40
79378;BME280;68959;53.132;17.984;2023-07-24T02:09:35;100157.12;;;16.55;56.87
79378;BME280;68959;53.132;17.984;2023-07-24T02:12:02;100154.73;;;16.49;57.03
79378;BME280;68959;53.132;17.984;2023-07-24T02:14:28;100153.95;;;16.43;57.30
79378;BME280;68959;53.132;17.984;2023-07-24T02:16:55;100155.21;;;16.38;57.29
79378;BME280;68959;53.132;17.984;2023-07-24T02:19:22;100148.96;;;16.32;57.71
79378;BME280;68959;53.132;17.984;2023-07-24T02:21:48;100152.04;;;16.28;57.64
79378;BME280;68959;53.132;17.984;2023-07-24T02:24:15;100154.20;;;16.24;57.76
79378;BME280;68959;53.132;17.984;2023-07-24T02:26:41;100158.13;;;16.21;58.07
79378;BME280;68959;53.132;17.984;2023-07-24T02:29:08;100152.40;;;16.18;57.99
79378;BME280;68959;53.132;17.984;2023-07-24T02:31:34;100152.46;;;16.16;58.05
79378;BME280;68959;53.132;17.984;2023-07-24T02:34:01;100149.16;;;16.14;58.04
79378;BME280;68959;53.132;17.984;2023-07-24T02:36:28;100148.92;;;16.12;58.13
79378;BME280;68959;53.132;17.984;2023-07-24T02:38:54;100148.04;;;16.10;58.13
79378;BME280;68959;53.132;17.984;2023-07-24T02:41:21;100150.56;;;16.10;58.21
79378;BME280;68959;53.132;17.984;2023-07-24T02:43:47;100144.95;;;16.09;58.18
79378;BME280;68959;53.132;17.984;2023-07-24T02:46:14;100141.02;;;16.10;58.65
79378;BME280;68959;53.132;17.984;2023-07-24T02:48:40;100141.39;;;16.11;58.61
79378;BME280;68959;53.132;17.984;2023-07-24T02:51:07;100142.10;;;16.13;58.62
79378;BME280;68959;53.132;17.984;2023-07-24T02:53:34;100142.64;;;16.14;58.80
79378;BME280;68959;53.132;17.984;2023-07-24T02:56:01;100138.57;;;16.16;59.02
79378;BME280;68959;53.132;17.984;2023-07-24T02:58:28;100130.92;;;16.18;59.16
79378;BME280;68959;53.132;17.984;2023-07-24T03:01:05;100134.75;;;16.19;59.14
79378;BME280;68959;53.132;17.984;2023-07-24T03:03:33;100130.30;;;16.20;58.98
79378;BME280;68959;53.132;17.984;2023-07-24T03:06:01;100125.38;;;16.24;58.85
79378;BME280;68959;53.132;17.984;2023-07-24T03:08:27;100122.95;;;16.25;58.77
79378;BME280;68959;53.132;17.984;2023-07-24T03:10:54;100123.61;;;16.26;58.82
79378;BME280;68959;53.132;17.984;2023-07-24T03:13:21;100122.39;;;16.27;58.79
79378;BME280;68959;53.132;17.984;2023-07-24T03:15:55;100129.61;;;16.28;58.75
79378;BME280;68959;53.132;17.984;2023-07-24T03:18:22;100134.35;;;16.28;58.92
79378;BME280;68959;53.132;17.984;2023-07-24T03:20:50;100138.19;;;16.30;58.89
79378;BME280;68959;53.132;17.984;2023-07-24T03:23:17;100142.13;;;16.33;59.05
79378;BME280;68959;53.132;17.984;2023-07-24T03:25:44;100145.46;;;16.36;59.13
79378;BME280;68959;53.132;17.984;2023-07-24T03:28:11;100144.71;;;16.39;59.19
79378;BME280;68959;53.132;17.984;2023-07-24T03:30:38;100143.48;;;16.41;59.29
79378;BME280;68959;53.132;17.984;2023-07-24T03:33:04;100142.45;;;16.43;59.33
79378;BME280;68959;53.132;17.984;2023-07-24T03:35:32;100145.39;;;16.44;59.53
79378;BME280;68959;53.132;17.984;2023-07-24T03:37:59;100145.18;;;16.45;59.78
79378;BME280;68959;53.132;17.984;2023-07-24T03:40:26;100145.42;;;16.46;59.82
79378;BME280;68959;53.132;17.984;2023-07-24T03:42:53;100141.52;;;16.48;59.76
79378;BME280;68959;53.132;17.984;2023-07-24T03:45:20;100141.01;;;16.52;59.62
79378;BME280;68959;53.132;17.984;2023-07-24T03:47:46;100140.42;;;16.56;59.75
79378;BME280;68959;53.132;17.984;2023-07-24T03:50:13;100140.45;;;16.60;59.82
79378;BME280;68959;53.132;17.984;2023-07-24T03:52:39;100142.17;;;16.64;59.91
79378;BME280;68959;53.132;17.984;2023-07-24T03:55:06;100140.30;;;16.69;59.99
79378;BME280;68959;53.132;17.984;2023-07-24T03:57:34;100147.14;;;16.73;60.05
79378;BME280;68959;53.132;17.984;2023-07-24T04:00:01;100140.48;;;16.77;59.82
79378;BME280;68959;53.132;17.984;2023-07-24T04:02:38;100142.27;;;16.81;60.22
79378;BME280;68959;53.132;17.984;2023-07-24T04:05:06;100139.40;;;16.81;60.07
79378;BME280;68959;53.132;17.984;2023-07-24T04:07:33;100140.87;;;16.82;60.31
79378;BME280;68959;53.132;17.984;2023-07-24T04:10:00;100144.27;;;16.83;60.26
79378;BME280;68959;53.132;17.984;2023-07-24T04:12:28;100146.94;;;16.83;60.24
79378;BME280;68959;53.132;17.984;2023-07-24T04:14:55;100141.23;;;16.85;60.35
79378;BME280;68959;53.132;17.984;2023-07-24T04:17:22;100139.66;;;16.85;60.48
79378;BME280;68959;53.132;17.984;2023-07-24T04:19:49;100141.86;;;16.88;60.45
79378;BME280;68959;53.132;17.984;2023-07-24T04:22:16;100145.38;;;16.93;60.55
79378;BME280;68959;53.132;17.984;2023-07-24T04:24:42;100142.04;;;16.98;60.74
79378;BME280;68959;53.132;17.984;2023-07-24T04:27:09;100135.50;;;17.05;60.29
79378;BME280;68959;53.132;17.984;2023-07-24T04:29:35;100141.11;;;17.15;60.25
79378;BME280;68959;53.132;17.984;2023-07-24T04:32:03;100143.98;;;17.23;60.15
79378;BME280;68959;53.132;17.984;2023-07-24T04:34:29;100145.48;;;17.31;59.99
79378;BME280;68959;53.132;17.984;2023-07-24T04:36:56;100149.90;;;17.37;60.22
79378;BME280;68959;53.132;17.984;2023-07-24T04:39:22;100144.99;;;17.37;60.40
79378;BME280;68959;53.132;17.984;2023-07-24T04:41:49;100147.96;;;17.39;60.29
79378;BME280;68959;53.132;17.984;2023-07-24T04:44:15;100143.98;;;17.42;60.37
79378;BME280;68959;53.132;17.984;2023-07-24T04:46:42;100144.00;;;17.49;60.37
79378;BME280;68959;53.132;17.984;2023-07-24T04:49:09;100142.32;;;17.55;60.31
79378;BME280;68959;53.132;17.984;2023-07-24T04:51:35;100146.55;;;17.62;60.20
79378;BME280;68959;53.132;17.984;2023-07-24T04:54:02;100142.41;;;17.68;60.09
79378;BME280;68959;53.132;17.984;2023-07-24T04:56:28;100138.38;;;17.72;60.16
79378;BME280;68959;53.132;17.984;2023-07-24T04:58:55;100138.43;;;17.79;59.93
79378;BME280;68959;53.132;17.984;2023-07-24T05:01:22;100144.42;;;17.86;60.10
79378;BME280;68959;53.132;17.984;2023-07-24T05:03:48;100150.88;;;17.93;60.14
79378;BME280;68959;53.132;17.984;2023-07-24T05:06:15;100156.66;;;17.96;60.34
79378;BME280;68959;53.132;17.984;2023-07-24T05:08:41;100148.60;;;17.96;60.01
79378;BME280;68959;53.132;17.984;2023-07-24T05:11:08;100144.58;;;18.01;60.11
79378;BME280;68959;53.132;17.984;2023-07-24T05:13:35;100145.66;;;18.08;60.35
79378;BME280;68959;53.132;17.984;2023-07-24T05:16:01;100143.61;;;18.15;60.35
79378;BME280;68959;53.132;17.984;2023-07-24T05:18:28;100143.90;;;18.19;60.30
79378;BME280;68959;53.132;17.984;2023-07-24T05:20:56;100148.02;;;18.22;60.17
79378;BME280;68959;53.132;17.984;2023-07-24T05:23:23;100150.67;;;18.26;60.20
79378;BME280;68959;53.132;17.984;2023-07-24T05:25:57;100151.74;;;18.29;60.27
79378;BME280;68959;53.132;17.984;2023-07-24T05:28:26;100145.86;;;18.35;59.93
79378;BME280;68959;53.132;17.984;2023-07-24T05:30:53;100149.67;;;18.48;59.85
79378;BME280;68959;53.132;17.984;2023-07-24T05:33:21;100144.23;;;18.60;59.78
79378;BME280;68959;53.132;17.984;2023-07-24T05:35:50;100145.69;;;18.68;59.64
79378;BME280;68959;53.132;17.984;2023-07-24T05:38:17;100148.39;;;18.74;59.57
79378;BME280;68959;53.132;17.984;2023-07-24T05:40:43;100151.91;;;18.74;59.80
79378;BME280;68959;53.132;17.984;2023-07-24T05:43:10;100152.23;;;18.71;60.95
79378;BME280;68959;53.132;17.984;2023-07-24T05:45:36;100152.02;;;18.62;62.04
79378;BME280;68959;53.132;17.984;2023-07-24T05:48:03;100151.04;;;18.54;63.05
79378;BME280;68959;53.132;17.984;2023-07-24T05:50:30;100157.02;;;18.48;63.96
79378;BME280;68959;53.132;17.984;2023-07-24T05:52:56;100156.13;;;18.40;64.46
79378;BME280;68959;53.132;17.984;2023-07-24T05:55:23;100166.67;;;18.32;65.40
79378;BME280;68959;53.132;17.984;2023-07-24T05:57:49;100175.16;;;18.23;66.44
79378;BME280;68959;53.132;17.984;2023-07-24T06:00:17;100179.75;;;18.18;66.23
79378;BME280;68959;53.132;17.984;2023-07-24T06:02:43;100184.80;;;18.16;67.35
79378;BME280;68959;53.132;17.984;2023-07-24T06:05:11;100183.27;;;18.11;67.44
79378;BME280;68959;53.132;17.984;2023-07-24T06:07:38;100184.51;;;18.04;67.59
79378;BME280;68959;53.132;17.984;2023-07-24T06:10:05;100179.98;;;17.99;67.85
79378;BME280;68959;53.132;17.984;2023-07-24T06:12:31;100176.10;;;17.97;68.66
79378;BME280;68959;53.132;17.984;2023-07-24T06:14:58;100163.98;;;17.93;68.87
79378;BME280;68959;53.132;17.984;2023-07-24T06:17:28;100172.08;;;17.94;68.68
79378;BME280;68959;53.132;17.984;2023-07-24T06:19:54;100168.90;;;17.94;69.26
79378;BME280;68959;53.132;17.984;2023-07-24T06:22:21;100165.45;;;17.98;68.87
79378;BME280;68959;53.132;17.984;2023-07-24T06:24:50;100165.91;;;18.05;70.31
79378;BME280;68959;53.132;17.984;2023-07-24T06:27:17;100157.33;;;18.15;69.50
79378;BME280;68959;53.132;17.984;2023-07-24T06:29:43;100159.13;;;18.29;69.48
79378;BME280;68959;53.132;17.984;2023-07-24T06:32:10;100157.02;;;18.44;69.02
79378;BME280;68959;53.132;17.984;2023-07-24T06:34:36;100155.27;;;18.56;69.13
79378;BME280;68959;53.132;17.984;2023-07-24T06:37:03;100155.07;;;18.65;68.87
79378;BME280;68959;53.132;17.984;2023-07-24T06:39:30;100141.02;;;18.71;69.69
79378;BME280;68959;53.132;17.984;2023-07-24T06:41:57;100127.99;;;18.74;69.80
79378;BME280;68959;53.132;17.984;2023-07-24T06:44:24;100121.77;;;18.72;70.11
79378;BME280;68959;53.132;17.984;2023-07-24T06:46:50;100116.67;;;18.73;69.92
79378;BME280;68959;53.132;17.984;2023-07-24T06:49:17;100115.89;;;18.79;69.94
79378;BME280;68959;53.132;17.984;2023-07-24T06:51:44;100109.94;;;18.83;70.56
79378;BME280;68959;53.132;17.984;2023-07-24T06:54:10;100103.75;;;18.84;70.51
79378;BME280;68959;53.132;17.984;2023-07-24T06:56:37;100110.77;;;18.94;70.16
79378;BME280;68959;53.132;17.984;2023-07-24T06:59:04;100104.42;;;19.06;69.86
79378;BME280;68959;53.132;17.984;2023-07-24T07:01:30;100099.48;;;19.24;69.56
79378;BME280;68959;53.132;17.984;2023-07-24T07:03:57;100096.73;;;19.42;69.19
79378;BME280;68959;53.132;17.984;2023-07-24T07:06:24;100096.71;;;19.57;68.40
79378;BME280;68959;53.132;17.984;2023-07-24T07:08:50;100096.14;;;19.79;68.13
79378;BME280;68959;53.132;17.984;2023-07-24T07:11:17;100096.58;;;19.92;67.92
79378;BME280;68959;53.132;17.984;2023-07-24T07:13:43;100094.20;;;19.95;67.74
79378;BME280;68959;53.132;17.984;2023-07-24T07:16:10;100092.96;;;20.03;67.82
79378;BME280;68959;53.132;17.984;2023-07-24T07:18:37;100089.34;;;20.13;67.90
79378;BME280;68959;53.132;17.984;2023-07-24T07:21:03;100088.58;;;20.15;67.80
79378;BME280;68959;53.132;17.984;2023-07-24T07:23:30;100085.23;;;20.13;67.51
79378;BME280;68959;53.132;17.984;2023-07-24T07:25:57;100081.36;;;20.19;67.40
79378;BME280;68959;53.132;17.984;2023-07-24T07:28:23;100074.17;;;20.29;67.46
79378;BME280;68959;53.132;17.984;2023-07-24T07:30:50;100076.69;;;20.38;67.42
79378;BME280;68959;53.132;17.984;2023-07-24T07:33:16;100074.19;;;20.44;67.44
79378;BME280;68959;53.132;17.984;2023-07-24T07:35:43;100081.30;;;20.48;67.49
79378;BME280;68959;53.132;17.984;2023-07-24T07:38:10;100076.70;;;20.68;67.16
79378;BME280;68959;53.132;17.984;2023-07-24T07:40:37;100070.20;;;20.93;65.53
79378;BME280;68959;53.132;17.984;2023-07-24T07:43:05;100064.93;;;21.09;64.72
79378;BME280;68959;53.132;17.984;2023-07-24T07:45:32;100066.10;;;21.30;64.22
79378;BME280;68959;53.132;17.984;2023-07-24T07:48:00;100065.06;;;21.42;64.27
79378;BME280;68959;53.132;17.984;2023-07-24T07:50:26;100059.49;;;21.72;63.93
79378;BME280;68959;53.132;17.984;2023-07-24T07:52:53;100053.50;;;21.99;62.69
79378;BME280;68959;53.132;17.984;2023-07-24T07:55:20;100051.86;;;22.14;62.78
79378;BME280;68959;53.132;17.984;2023-07-24T07:57:47;100048.85;;;22.26;61.46
79378;BME280;68959;53.132;17.984;2023-07-24T08:00:14;100047.31;;;22.43;60.91
79378;BME280;68959;53.132;17.984;2023-07-24T08:02:41;100037.52;;;23.23;60.06
79378;BME280;68959;53.132;17.984;2023-07-24T08:05:09;100030.20;;;23.87;58.15
79378;BME280;68959;53.132;17.984;2023-07-24T08:07:36;100025.96;;;24.33;56.45
79378;BME280;68959;53.132;17.984;2023-07-24T08:10:03;100022.92;;;24.69;55.45
79378;BME280;68959;53.132;17.984;2023-07-24T08:12:30;100019.35;;;25.03;55.54
79378;BME280;68959;53.132;17.984;2023-07-24T08:14:57;100019.38;;;25.73;52.55
79378;BME280;68959;53.132;17.984;2023-07-24T08:17:23;100015.22;;;26.23;50.14
79378;BME280;68959;53.132;17.984;2023-07-24T08:19:50;100009.88;;;26.34;49.11
79378;BME280;68959;53.132;17.984;2023-07-24T08:22:17;100007.96;;;26.38;48.99
79378;BME280;68959;53.132;17.984;2023-07-24T08:24:46;100006.35;;;26.54;48.14
79378;BME280;68959;53.132;17.984;2023-07-24T08:27:13;100002.93;;;26.66;46.25
79378;BME280;68959;53.132;17.984;2023-07-24T08:29:40;99995.38;;;26.77;45.64
79378;BME280;68959;53.132;17.984;2023-07-24T08:32:07;99995.16;;;26.82;44.66
79378;BME280;68959;53.132;17.984;2023-07-24T08:34:35;99995.21;;;26.78;46.44
79378;BME280;68959;53.132;17.984;2023-07-24T08:37:01;99986.69;;;26.87;45.41
79378;BME280;68959;53.132;17.984;2023-07-24T08:39:30;99981.23;;;27.01;44.65
79378;BME280;68959;53.132;17.984;2023-07-24T08:41:57;99978.82;;;27.10;43.41
79378;BME280;68959;53.132;17.984;2023-07-24T08:44:25;99977.27;;;27.36;42.81
79378;BME280;68959;53.132;17.984;2023-07-24T08:46:54;99977.32;;;27.48;42.53
79378;BME280;68959;53.132;17.984;2023-07-24T08:49:22;99976.85;;;27.31;40.41
79378;BME280;68959;53.132;17.984;2023-07-24T08:51:49;99979.48;;;27.13;40.91
79378;BME280;68959;53.132;17.984;2023-07-24T08:54:18;99979.35;;;27.28;41.06
79378;BME280;68959;53.132;17.984;2023-07-24T08:56:45;99967.83;;;27.21;41.43
79378;BME280;68959;53.132;17.984;2023-07-24T08:59:16;99971.81;;;27.26;41.41
79378;BME280;68959;53.132;17.984;2023-07-24T09:01:43;99975.54;;;26.98;41.24
79378;BME280;68959;53.132;17.984;2023-07-24T09:04:10;99968.36;;;27.47;40.78
79378;BME280;68959;53.132;17.984;2023-07-24T09:06:37;99968.41;;;28.48;39.36
79378;BME280;68959;53.132;17.984;2023-07-24T09:09:12;99966.98;;;29.19;37.33
79378;BME280;68959;53.132;17.984;2023-07-24T09:11:50;99955.48;;;29.31;37.93
79378;BME280;68959;53.132;17.984;2023-07-24T09:14:28;99964.85;;;28.73;37.84
79378;BME280;68959;53.132;17.984;2023-07-24T09:17:05;99958.51;;;28.95;38.21
79378;BME280;68959;53.132;17.984;2023-07-24T09:19:32;99962.16;;;28.51;38.56
79378;BME280;68959;53.132;17.984;2023-07-24T09:22:09;99956.06;;;28.01;39.39
79378;BME280;68959;53.132;17.984;2023-07-24T09:24:37;99956.19;;;28.27;39.04
79378;BME280;68959;53.132;17.984;2023-07-24T09:27:05;99948.94;;;28.38;38.87
79378;BME280;68959;53.132;17.984;2023-07-24T09:29:34;99949.52;;;28.36;38.78
79378;BME280;68959;53.132;17.984;2023-07-24T09:32:02;99946.04;;;28.32;39.07
79378;BME280;68959;53.132;17.984;2023-07-24T09:34:28;99949.17;;;28.64;38.47
79378;BME280;68959;53.132;17.984;2023-07-24T09:36:55;99944.43;;;30.08;35.80
79378;BME280;68959;53.132;17.984;2023-07-24T09:39:23;99939.77;;;30.11;35.23
79378;BME280;68959;53.132;17.984;2023-07-24T09:41:50;99930.88;;;29.89;35.84
79378;BME280;68959;53.132;17.984;2023-07-24T09:44:17;99923.05;;;30.81;35.30
79378;BME280;68959;53.132;17.984;2023-07-24T09:46:44;99925.80;;;32.11;32.87
79378;BME280;68959;53.132;17.984;2023-07-24T09:49:11;99928.10;;;32.85;30.67
79378;BME280;68959;53.132;17.984;2023-07-24T09:51:38;99917.48;;;33.57;30.70
79378;BME280;68959;53.132;17.984;2023-07-24T09:54:36;99927.58;;;34.01;28.93
79378;BME280;68959;53.132;17.984;2023-07-24T09:57:08;99916.98;;;33.49;29.18
79378;BME280;68959;53.132;17.984;2023-07-24T09:59:36;99924.16;;;32.14;30.19
79378;BME280;68959;53.132;17.984;2023-07-24T10:02:03;99920.05;;;31.00;31.96
79378;BME280;68959;53.132;17.984;2023-07-24T10:04:32;99931.14;;;30.11;33.32
79378;BME280;68959;53.132;17.984;2023-07-24T10:07:01;99913.92;;;29.70;34.29
79378;BME280;68959;53.132;17.984;2023-07-24T10:09:28;99901.78;;;30.93;32.53
79378;BME280;68959;53.132;17.984;2023-07-24T10:11:57;99903.73;;;31.65;31.39
79378;BME280;68959;53.132;17.984;2023-07-24T10:14:25;99890.80;;;32.57;30.53
79378;BME280;68959;53.132;17.984;2023-07-24T10:16:53;99883.13;;;33.30;29.26
79378;BME280;68959;53.132;17.984;2023-07-24T10:19:22;99872.61;;;34.05;27.99
79378;BME280;68959;53.132;17.984;2023-07-24T10:21:51;99872.45;;;34.82;27.46
79378;BME280;68959;53.132;17.984;2023-07-24T10:24:18;99858.29;;;35.35;26.64
79378;BME280;68959;53.132;17.984;2023-07-24T10:26:55;99862.48;;;34.59;26.86
79378;BME280;68959;53.132;17.984;2023-07-24T10:29:25;99857.35;;;33.60;27.64
79378;BME280;68959;53.132;17.984;2023-07-24T10:31:55;99853.01;;;33.57;27.56
79378;BME280;68959;53.132;17.984;2023-07-24T10:34:23;99864.90;;;32.78;28.57
79378;BME280;68959;53.132;17.984;2023-07-24T10:36:50;99856.33;;;31.80;29.67
79378;BME280;68959;53.132;17.984;2023-07-24T10:39:17;99860.27;;;31.11;30.97
79378;BME280;68959;53.132;17.984;2023-07-24T10:41:48;99863.85;;;31.05;31.26
79378;BME280;68959;53.132;17.984;2023-07-24T10:44:15;99849.56;;;31.77;30.15
79378;BME280;68959;53.132;17.984;2023-07-24T10:46:42;99854.14;;;32.28;29.70
79378;BME280;68959;53.132;17.984;2023-07-24T10:49:13;99850.73;;;32.60;29.02
79378;BME280;68959;53.132;17.984;2023-07-24T10:51:40;99850.14;;;33.60;27.66
79378;BME280;68959;53.132;17.984;2023-07-24T10:54:08;99847.33;;;33.60;27.69
79378;BME280;68959;53.132;17.984;2023-07-24T10:56:36;99844.33;;;33.76;27.70
79378;BME280;68959;53.132;17.984;2023-07-24T10:59:04;99842.98;;;34.63;26.44
79378;BME280;68959;53.132;17.984;2023-07-24T11:01:31;99842.54;;;35.17;25.75
79378;BME280;68959;53.132;17.984;2023-07-24T11:03:59;99845.29;;;34.27;26.31
79378;BME280;68959;53.132;17.984;2023-07-24T11:06:27;99837.61;;;33.57;27.11
79378;BME280;68959;53.132;17.984;2023-07-24T11:08:56;99846.41;;;33.08;27.54
79378;BME280;68959;53.132;17.984;2023-07-24T11:11:33;99835.61;;;31.89;29.34
79378;BME280;68959;53.132;17.984;2023-07-24T11:14:03;99843.59;;;31.19;30.51
79378;BME280;68959;53.132;17.984;2023-07-24T11:16:30;99838.46;;;31.51;30.14
79378;BME280;68959;53.132;17.984;2023-07-24T11:18:57;99828.33;;;33.03;27.74
79378;BME280;68959;53.132;17.984;2023-07-24T11:21:24;99823.56;;;34.35;26.10
79378;BME280;68959;53.132;17.984;2023-07-24T11:23:53;99813.60;;;35.24;24.43
79378;BME280;68959;53.132;17.984;2023-07-24T11:26:21;99810.29;;;35.91;23.64
79378;BME280;68959;53.132;17.984;2023-07-24T11:28:49;99816.71;;;35.37;23.94
79378;BME280;68959;53.132;17.984;2023-07-24T11:31:16;99816.36;;;33.85;25.55
79378;BME280;68959;53.132;17.984;2023-07-24T11:33:47;99828.03;;;32.75;26.61
79378;BME280;68959;53.132;17.984;2023-07-24T11:36:15;99828.73;;;32.02;27.61
79378;BME280;68959;53.132;17.984;2023-07-24T11:38:45;99824.74;;;32.57;27.39
79378;BME280;68959;53.132;17.984;2023-07-24T11:41:12;99829.27;;;32.68;27.20
79378;BME280;68959;53.132;17.984;2023-07-24T11:43:46;99831.52;;;32.31;27.64
79378;BME280;68959;53.132;17.984;2023-07-24T11:46:27;99830.39;;;31.71;27.98
79378;BME280;68959;53.132;17.984;2023-07-24T11:48:54;99832.46;;;32.00;27.91
79378;BME280;68959;53.132;17.984;2023-07-24T11:51:25;99837.19;;;32.18;27.80
79378;BME280;68959;53.132;17.984;2023-07-24T11:53:52;99819.67;;;32.68;27.04
79378;BME280;68959;53.132;17.984;2023-07-24T11:56:19;99808.88;;;33.92;25.71
79378;BME280;68959;53.132;17.984;2023-07-24T11:58:46;99795.58;;;35.00;24.27
79378;BME280;68959;53.132;17.984;2023-07-24T12:01:12;99795.52;;;35.88;23.07
79378;BME280;68959;53.132;17.984;2023-07-24T12:03:40;99800.88;;;36.68;22.34
79378;BME280;68959;53.132;17.984;2023-07-24T12:06:15;99805.49;;;37.31;20.84
79378;BME280;68959;53.132;17.984;2023-07-24T12:08:44;99787.92;;;37.74;20.51
79378;BME280;68959;53.132;17.984;2023-07-24T12:11:17;99780.32;;;37.02;21.33
79378;BME280;68959;53.132;17.984;2023-07-24T12:13:47;99791.00;;;35.04;23.18
79378;BME280;68959;53.132;17.984;2023-07-24T12:16:13;99789.70;;;33.77;24.70
79378;BME280;68959;53.132;17.984;2023-07-24T12:18:40;99788.14;;;33.12;25.57
79378;BME280;68959;53.132;17.984;2023-07-24T12:21:07;99794.55;;;32.58;26.66
79378;BME280;68959;53.132;17.984;2023-07-24T12:23:33;99789.62;;;32.14;27.20
79378;BME280;68959;53.132;17.984;2023-07-24T12:26:00;99792.80;;;31.76;27.67
79378;BME280;68959;53.132;17.984;2023-07-24T12:28:26;99785.73;;;31.52;28.30
79378;BME280;68959;53.132;17.984;2023-07-24T12:30:53;99787.04;;;31.33;28.69
79378;BME280;68959;53.132;17.984;2023-07-24T12:33:19;99779.44;;;31.30;28.79
79378;BME280;68959;53.132;17.984;2023-07-24T12:35:50;99777.19;;;31.18;28.68
79378;BME280;68959;53.132;17.984;2023-07-24T12:38:17;99771.52;;;32.26;27.33
79378;BME280;68959;53.132;17.984;2023-07-24T12:40:44;99772.41;;;32.76;26.82
79378;BME280;68959;53.132;17.984;2023-07-24T12:43:10;99765.26;;;32.26;27.24
79378;BME280;68959;53.132;17.984;2023-07-24T12:45:37;99758.52;;;31.71;27.65
79378;BME280;68959;53.132;17.984;2023-07-24T12:48:04;99751.91;;;31.31;28.46
79378;BME280;68959;53.132;17.984;2023-07-24T12:50:30;99752.41;;;30.92;28.91
79378;BME280;68959;53.132;17.984;2023-07-24T12:52:57;99758.17;;;30.83;28.96